TRA5X EHRD-LEGE
Flight info
| Callsign | TRA5X |
|---|---|
| Flight time | N/A |
| Altitude | 35000 |
| Route | WOODY N872 MEDIL/N0450F350 DCT KOVIN DCT DUCRA DCT RESMI DCT DEKOD DCT DISAK DCT DIRMO DCT VALKU DCT ATSUP DCT MINSO DCT DEGOL DCT PPG A27 KANIG |
| Aircraft | B738/M-SDE2E3FGHIRWXY/LB1 |
Departure
| Time | 2026-04-27 14:30 |
|---|---|
| Airport | Rotterdam The Hague Airport (EHRD) |
Arrival
| Time | N/A |
|---|---|
| Airport | Girona-Costa Brava Airport (LEGE) |
| Time | Latitude | Longitude | Altitude | Speed | Heading |
|---|---|---|---|---|---|
| 2026-04-27 14:10 | 51.94943 | 4.43583 | -3 ft | 0 kts | 328° |
| 2026-04-27 14:27 | 51.94952 | 4.43575 | -4 ft | 3 kts | 336° |
| 2026-04-27 14:27 | 51.94987 | 4.43590 | -5 ft | 8 kts | 41° |
| 2026-04-27 14:27 | 51.95036 | 4.43677 | -6 ft | 11 kts | 42° |
| 2026-04-27 14:27 | 51.95105 | 4.43654 | -6 ft | 12 kts | 328° |
| 2026-04-27 14:28 | 51.95184 | 4.43570 | -6 ft | 14 kts | 328° |
| 2026-04-27 14:28 | 51.95260 | 4.43484 | -6 ft | 9 kts | 294° |
| 2026-04-27 14:28 | 51.95239 | 4.43389 | -4 ft | 12 kts | 241° |
| 2026-04-27 14:28 | 51.95190 | 4.43258 | -3 ft | 13 kts | 238° |
| 2026-04-27 14:29 | 51.95145 | 4.43130 | -4 ft | 14 kts | 243° |
| 2026-04-27 14:29 | 51.95115 | 4.42975 | -6 ft | 14 kts | 278° |
| 2026-04-27 14:29 | 51.95187 | 4.42865 | -6 ft | 12 kts | 327° |
| 2026-04-27 14:29 | 51.95235 | 4.42874 | -6 ft | 6 kts | 57° |
| 2026-04-27 14:30 | 51.95276 | 4.42979 | -6 ft | 33 kts | 57° |
| 2026-04-27 14:30 | 51.95554 | 4.43684 | -6 ft | 111 kts | 56° |
| 2026-04-27 14:30 | 51.96103 | 4.45031 | 18 ft | 171 kts | 53° |
| 2026-04-27 14:30 | 51.96745 | 4.46636 | 804 ft | 170 kts | 54° |
| 2026-04-27 14:31 | 51.97369 | 4.48215 | 1678 ft | 167 kts | 53° |
| 2026-04-27 14:31 | 51.97960 | 4.49908 | 2065 ft | 184 kts | 60° |
| 2026-04-27 14:31 | 51.98529 | 4.51796 | 2584 ft | 190 kts | 60° |
| 2026-04-27 14:31 | 51.99139 | 4.53784 | 2966 ft | 207 kts | 60° |
| 2026-04-27 14:32 | 51.99797 | 4.56026 | 3214 ft | 236 kts | 66° |
| 2026-04-27 14:32 | 52.00072 | 4.58705 | 3871 ft | 249 kts | 91° |
| 2026-04-27 14:32 | 51.99554 | 4.61417 | 4491 ft | 267 kts | 123° |
| 2026-04-27 14:32 | 51.98123 | 4.63412 | 5126 ft | 280 kts | 156° |
| 2026-04-27 14:33 | 51.96214 | 4.63992 | 5297 ft | 289 kts | 186° |
| 2026-04-27 14:33 | 51.94299 | 4.63179 | 5277 ft | 280 kts | 203° |
| 2026-04-27 14:33 | 51.93071 | 4.62439 | 5330 ft | 288 kts | 202° |
| 2026-04-27 14:33 | 51.90561 | 4.61119 | 6819 ft | 279 kts | 200° |
| 2026-04-27 14:34 | 51.88766 | 4.60215 | 7863 ft | 274 kts | 201° |
| 2026-04-27 14:34 | 51.86963 | 4.59292 | 8704 ft | 277 kts | 201° |
| 2026-04-27 14:34 | 51.85091 | 4.58347 | 9421 ft | 284 kts | 201° |
| 2026-04-27 14:34 | 51.83224 | 4.57423 | 10289 ft | 285 kts | 200° |
| 2026-04-27 14:35 | 51.81311 | 4.56479 | 10903 ft | 295 kts | 200° |
| 2026-04-27 14:35 | 51.79264 | 4.55465 | 11102 ft | 319 kts | 200° |
| 2026-04-27 14:35 | 51.77126 | 4.54418 | 11496 ft | 334 kts | 200° |
| 2026-04-27 14:35 | 51.74858 | 4.53311 | 12065 ft | 343 kts | 200° |
| 2026-04-27 14:36 | 51.72575 | 4.52203 | 12789 ft | 346 kts | 200° |
| 2026-04-27 14:36 | 51.70270 | 4.51083 | 13479 ft | 350 kts | 200° |
| 2026-04-27 14:36 | 51.67947 | 4.49958 | 14237 ft | 350 kts | 201° |
| 2026-04-27 14:36 | 51.65639 | 4.48840 | 14896 ft | 353 kts | 201° |
| 2026-04-27 14:37 | 51.63289 | 4.47701 | 15578 ft | 355 kts | 201° |
| 2026-04-27 14:37 | 51.60930 | 4.46561 | 16223 ft | 358 kts | 202° |
| 2026-04-27 14:37 | 51.58530 | 4.45401 | 16861 ft | 360 kts | 202° |
| 2026-04-27 14:37 | 51.56141 | 4.44248 | 17470 ft | 362 kts | 202° |
| 2026-04-27 14:38 | 51.53748 | 4.43096 | 18063 ft | 364 kts | 202° |
| 2026-04-27 14:38 | 51.51327 | 4.41930 | 18637 ft | 366 kts | 203° |
| 2026-04-27 14:38 | 51.48895 | 4.40760 | 19205 ft | 368 kts | 203° |
| 2026-04-27 14:38 | 51.46422 | 4.39574 | 19754 ft | 370 kts | 203° |
| 2026-04-27 14:39 | 51.44773 | 4.38787 | 20114 ft | 372 kts | 204° |
| 2026-04-27 14:39 | 51.41496 | 4.37218 | 20799 ft | 373 kts | 205° |
| 2026-04-27 14:39 | 51.39092 | 4.35695 | 21292 ft | 370 kts | 212° |
| 2026-04-27 14:39 | 51.36788 | 4.33932 | 21811 ft | 370 kts | 212° |
| 2026-04-27 14:40 | 51.34465 | 4.32168 | 22267 ft | 372 kts | 212° |
| 2026-04-27 14:40 | 51.32104 | 4.30392 | 22742 ft | 374 kts | 212° |
| 2026-04-27 14:40 | 51.29779 | 4.28641 | 23191 ft | 375 kts | 213° |
| 2026-04-27 14:40 | 51.27409 | 4.26857 | 23625 ft | 377 kts | 213° |
| 2026-04-27 14:41 | 51.25026 | 4.25065 | 24058 ft | 378 kts | 213° |
| 2026-04-27 14:41 | 51.22673 | 4.23296 | 24458 ft | 380 kts | 213° |
| 2026-04-27 14:41 | 51.20260 | 4.21483 | 24867 ft | 381 kts | 213° |
| 2026-04-27 14:41 | 51.17903 | 4.19665 | 25242 ft | 382 kts | 214° |
| 2026-04-27 14:42 | 51.15457 | 4.17941 | 25613 ft | 390 kts | 209° |
| 2026-04-27 14:42 | 51.12871 | 4.16540 | 25985 ft | 394 kts | 207° |
| 2026-04-27 14:42 | 51.10262 | 4.15172 | 26328 ft | 395 kts | 208° |
| 2026-04-27 14:42 | 51.08566 | 4.14260 | 26548 ft | 396 kts | 208° |
| 2026-04-27 14:43 | 51.05947 | 4.12847 | 26886 ft | 397 kts | 208° |
| 2026-04-27 14:43 | 51.02475 | 4.10973 | 27285 ft | 400 kts | 208° |
| 2026-04-27 14:43 | 50.99808 | 4.09524 | 27449 ft | 405 kts | 208° |
| 2026-04-27 14:43 | 50.97156 | 4.08076 | 27669 ft | 408 kts | 208° |
| 2026-04-27 14:44 | 50.94458 | 4.06600 | 27860 ft | 412 kts | 208° |
| 2026-04-27 14:44 | 50.91756 | 4.05119 | 28050 ft | 416 kts | 208° |
| 2026-04-27 14:44 | 50.89028 | 4.03624 | 28235 ft | 420 kts | 207° |
| 2026-04-27 14:44 | 50.86254 | 4.02035 | 28442 ft | 421 kts | 210° |
| 2026-04-27 14:45 | 50.83561 | 4.00290 | 28748 ft | 420 kts | 211° |
| 2026-04-27 14:45 | 50.80885 | 3.98533 | 28993 ft | 422 kts | 211° |
| 2026-04-27 14:45 | 50.78187 | 3.96790 | 29242 ft | 424 kts | 210° |
| 2026-04-27 14:45 | 50.75464 | 3.95044 | 29514 ft | 424 kts | 210° |
| 2026-04-27 14:46 | 50.72737 | 3.93298 | 29804 ft | 425 kts | 211° |
| 2026-04-27 14:46 | 50.69986 | 3.91542 | 30100 ft | 424 kts | 211° |
| 2026-04-27 14:46 | 50.67250 | 3.89799 | 30400 ft | 424 kts | 211° |
| 2026-04-27 14:46 | 50.64535 | 3.88074 | 30699 ft | 423 kts | 211° |
| 2026-04-27 14:47 | 50.62719 | 3.86921 | 30900 ft | 423 kts | 211° |
| 2026-04-27 14:47 | 50.60007 | 3.85202 | 31201 ft | 422 kts | 211° |
| 2026-04-27 14:47 | 50.56401 | 3.82905 | 31597 ft | 420 kts | 212° |
| 2026-04-27 14:47 | 50.54648 | 3.81727 | 31788 ft | 418 kts | 213° |
| 2026-04-27 14:48 | 50.51091 | 3.79277 | 32175 ft | 416 kts | 213° |
| 2026-04-27 14:48 | 50.45811 | 3.75675 | 32730 ft | 415 kts | 213° |
| 2026-04-27 14:48 | 50.43203 | 3.73899 | 32995 ft | 414 kts | 213° |
| 2026-04-27 14:49 | 50.40573 | 3.72112 | 33261 ft | 413 kts | 213° |
| 2026-04-27 14:49 | 50.37942 | 3.70327 | 33518 ft | 412 kts | 213° |
| 2026-04-27 14:49 | 50.35323 | 3.68553 | 33772 ft | 411 kts | 213° |
| 2026-04-27 14:49 | 50.32732 | 3.66802 | 34014 ft | 410 kts | 213° |
| 2026-04-27 14:50 | 50.30124 | 3.65040 | 34245 ft | 409 kts | 213° |
| 2026-04-27 14:50 | 50.28368 | 3.63855 | 34400 ft | 409 kts | 213° |
| 2026-04-27 14:50 | 50.24897 | 3.61515 | 34691 ft | 408 kts | 213° |
| 2026-04-27 14:50 | 50.23180 | 3.60357 | 34834 ft | 407 kts | 213° |
| 2026-04-27 14:51 | 50.19736 | 3.58039 | 35112 ft | 407 kts | 213° |
| 2026-04-27 14:51 | 50.17142 | 3.56295 | 35316 ft | 406 kts | 213° |
| 2026-04-27 14:51 | 50.14572 | 3.54569 | 35513 ft | 405 kts | 213° |
| 2026-04-27 14:51 | 50.12835 | 3.53404 | 35643 ft | 405 kts | 213° |
| 2026-04-27 14:52 | 50.09414 | 3.51111 | 35893 ft | 404 kts | 213° |
| 2026-04-27 14:52 | 50.06823 | 3.49377 | 36076 ft | 404 kts | 213° |
| 2026-04-27 14:52 | 50.04276 | 3.47674 | 36246 ft | 404 kts | 213° |
| 2026-04-27 14:52 | 50.02543 | 3.46517 | 36355 ft | 403 kts | 213° |
| 2026-04-27 14:53 | 49.99142 | 3.44247 | 36565 ft | 403 kts | 213° |
| 2026-04-27 14:53 | 49.96568 | 3.42532 | 36714 ft | 403 kts | 213° |
| 2026-04-27 14:53 | 49.94010 | 3.40829 | 36859 ft | 403 kts | 213° |
| 2026-04-27 14:53 | 49.91413 | 3.39103 | 37002 ft | 403 kts | 213° |
| 2026-04-27 14:54 | 49.86277 | 3.35696 | 37209 ft | 405 kts | 213° |
| 2026-04-27 14:54 | 49.81074 | 3.32252 | 37213 ft | 413 kts | 213° |
| 2026-04-27 14:55 | 49.75747 | 3.28740 | 37210 ft | 419 kts | 212° |
| 2026-04-27 14:55 | 49.70393 | 3.25220 | 37208 ft | 420 kts | 212° |
| 2026-04-27 14:56 | 49.65051 | 3.21719 | 37208 ft | 418 kts | 212° |
| 2026-04-27 14:56 | 49.59732 | 3.18235 | 37209 ft | 418 kts | 212° |
| 2026-04-27 14:57 | 49.54390 | 3.14741 | 37207 ft | 418 kts | 212° |
| 2026-04-27 14:57 | 49.49114 | 3.11152 | 37205 ft | 411 kts | 218° |
| 2026-04-27 14:58 | 49.44372 | 3.06560 | 37206 ft | 404 kts | 221° |
| 2026-04-27 14:58 | 49.40436 | 3.02631 | 37198 ft | 402 kts | 222° |
| 2026-04-27 14:59 | 49.35015 | 2.97194 | 37188 ft | 399 kts | 222° |
| 2026-04-27 14:59 | 49.30407 | 2.92558 | 37184 ft | 397 kts | 222° |
| 2026-04-27 15:00 | 49.25830 | 2.87953 | 37182 ft | 395 kts | 222° |
| 2026-04-27 15:00 | 49.21283 | 2.83383 | 37182 ft | 394 kts | 222° |
| 2026-04-27 15:01 | 49.16698 | 2.78779 | 37182 ft | 394 kts | 222° |
| 2026-04-27 15:01 | 49.12134 | 2.74204 | 37182 ft | 395 kts | 222° |
| 2026-04-27 15:02 | 49.07555 | 2.69609 | 37181 ft | 399 kts | 221° |
| 2026-04-27 15:02 | 49.02911 | 2.64931 | 37182 ft | 405 kts | 221° |
| 2026-04-27 15:03 | 48.98182 | 2.60170 | 37182 ft | 412 kts | 220° |
| 2026-04-27 15:03 | 48.94179 | 2.56149 | 37183 ft | 418 kts | 219° |
| 2026-04-27 15:04 | 48.88471 | 2.50450 | 37178 ft | 424 kts | 219° |
| 2026-04-27 15:04 | 48.83550 | 2.45573 | 37175 ft | 424 kts | 219° |
| 2026-04-27 15:05 | 48.78634 | 2.40718 | 37178 ft | 422 kts | 219° |
| 2026-04-27 15:05 | 48.73713 | 2.35870 | 37182 ft | 422 kts | 219° |
| 2026-04-27 15:06 | 48.68800 | 2.31049 | 37182 ft | 423 kts | 219° |
| 2026-04-27 15:06 | 48.63868 | 2.26226 | 37182 ft | 423 kts | 219° |
| 2026-04-27 15:07 | 48.58925 | 2.21458 | 37181 ft | 425 kts | 216° |
| 2026-04-27 15:07 | 48.53386 | 2.18186 | 37185 ft | 440 kts | 200° |
| 2026-04-27 15:08 | 48.47372 | 2.16273 | 37182 ft | 442 kts | 199° |
| 2026-04-27 15:08 | 48.41379 | 2.14323 | 37174 ft | 442 kts | 199° |
| 2026-04-27 15:09 | 48.35403 | 2.12396 | 37164 ft | 442 kts | 199° |
| 2026-04-27 15:09 | 48.29368 | 2.10694 | 37153 ft | 447 kts | 193° |
| 2026-04-27 15:10 | 48.23063 | 2.11188 | 37161 ft | 463 kts | 179° |
| 2026-04-27 15:10 | 48.16703 | 2.12528 | 37155 ft | 463 kts | 180° |
| 2026-04-27 15:11 | 48.10357 | 2.13527 | 37154 ft | 457 kts | 185° |
| 2026-04-27 15:11 | 48.04054 | 2.13820 | 37155 ft | 456 kts | 185° |
| 2026-04-27 15:12 | 47.98788 | 2.14108 | 37155 ft | 457 kts | 185° |
| 2026-04-27 15:12 | 47.91408 | 2.14522 | 37155 ft | 457 kts | 185° |
| 2026-04-27 15:13 | 47.86131 | 2.14823 | 37155 ft | 457 kts | 185° |
| 2026-04-27 15:13 | 47.78749 | 2.15248 | 37155 ft | 457 kts | 185° |
| 2026-04-27 15:14 | 47.72445 | 2.15612 | 37155 ft | 457 kts | 185° |
| 2026-04-27 15:14 | 47.66115 | 2.15978 | 37155 ft | 457 kts | 185° |
| 2026-04-27 15:15 | 47.60851 | 2.16282 | 37155 ft | 457 kts | 185° |
| 2026-04-27 15:15 | 47.53448 | 2.16710 | 37155 ft | 457 kts | 185° |
| 2026-04-27 15:16 | 47.47140 | 2.17073 | 37151 ft | 457 kts | 185° |
| 2026-04-27 15:16 | 47.41876 | 2.17376 | 37142 ft | 457 kts | 185° |
| 2026-04-27 15:17 | 47.34486 | 2.17801 | 37130 ft | 457 kts | 185° |
| 2026-04-27 15:17 | 47.28171 | 2.18163 | 37128 ft | 457 kts | 185° |
| 2026-04-27 15:18 | 47.21825 | 2.18526 | 37128 ft | 457 kts | 185° |
| 2026-04-27 15:18 | 47.16551 | 2.18827 | 37128 ft | 457 kts | 185° |
| 2026-04-27 15:19 | 47.09174 | 2.19724 | 37125 ft | 466 kts | 176° |
| 2026-04-27 15:19 | 47.02922 | 2.22731 | 37132 ft | 478 kts | 165° |
| 2026-04-27 15:20 | 46.96739 | 2.26323 | 37128 ft | 480 kts | 166° |
| 2026-04-27 15:20 | 46.90544 | 2.29889 | 37128 ft | 483 kts | 166° |
| 2026-04-27 15:21 | 46.85359 | 2.32875 | 37129 ft | 486 kts | 166° |
| 2026-04-27 15:21 | 46.78042 | 2.37093 | 37127 ft | 486 kts | 166° |
| 2026-04-27 15:22 | 46.72795 | 2.40120 | 37127 ft | 485 kts | 166° |
| 2026-04-27 15:22 | 46.65497 | 2.44322 | 37128 ft | 485 kts | 166° |
| 2026-04-27 15:23 | 46.59247 | 2.47915 | 37128 ft | 485 kts | 166° |
| 2026-04-27 15:23 | 46.53032 | 2.51480 | 37128 ft | 485 kts | 166° |
| 2026-04-27 15:24 | 46.46741 | 2.55081 | 37128 ft | 485 kts | 166° |
| 2026-04-27 15:24 | 46.40477 | 2.58657 | 37128 ft | 485 kts | 166° |
| 2026-04-27 15:25 | 46.35262 | 2.61630 | 37124 ft | 485 kts | 166° |
| 2026-04-27 15:25 | 46.27987 | 2.65766 | 37111 ft | 484 kts | 167° |
| 2026-04-27 15:26 | 46.22781 | 2.68722 | 37102 ft | 483 kts | 167° |
| 2026-04-27 15:26 | 46.15510 | 2.72838 | 37101 ft | 484 kts | 167° |
| 2026-04-27 15:27 | 46.10323 | 2.75765 | 37101 ft | 484 kts | 167° |
| 2026-04-27 15:27 | 46.03026 | 2.79801 | 37100 ft | 482 kts | 169° |
| 2026-04-27 15:28 | 45.96653 | 2.81726 | 37101 ft | 460 kts | 186° |
| 2026-04-27 15:28 | 45.90264 | 2.81888 | 37102 ft | 459 kts | 188° |
| 2026-04-27 15:29 | 45.83946 | 2.82035 | 37101 ft | 458 kts | 188° |
| 2026-04-27 15:29 | 45.77568 | 2.82163 | 37101 ft | 458 kts | 188° |
| 2026-04-27 15:30 | 45.72298 | 2.82260 | 37101 ft | 458 kts | 188° |
| 2026-04-27 15:30 | 45.64908 | 2.82388 | 37101 ft | 458 kts | 188° |
| 2026-04-27 15:31 | 45.59583 | 2.82475 | 37101 ft | 458 kts | 188° |
| 2026-04-27 15:31 | 45.53260 | 2.82577 | 37101 ft | 458 kts | 188° |
| 2026-04-27 15:32 | 45.45859 | 2.82695 | 37101 ft | 458 kts | 188° |
| 2026-04-27 15:32 | 45.39496 | 2.82795 | 37101 ft | 458 kts | 188° |
| 2026-04-27 15:33 | 45.34190 | 2.82878 | 37101 ft | 458 kts | 188° |
| 2026-04-27 15:33 | 45.26797 | 2.82995 | 37101 ft | 458 kts | 188° |
| 2026-04-27 15:34 | 45.20490 | 2.83094 | 37101 ft | 458 kts | 188° |
| 2026-04-27 15:34 | 45.15169 | 2.83176 | 37101 ft | 458 kts | 188° |
| 2026-04-27 15:35 | 45.08828 | 2.83274 | 37100 ft | 459 kts | 188° |